sensor_id;sensor_type;location;lat;lon;timestamp;P1;durP1;ratioP1;P2;durP2;ratioP2
29938;SDS011;16799;50.844;5.304;2023-06-19T00:01:19;4.90;;;4.40;;
29938;SDS011;16799;50.844;5.304;2023-06-19T00:03:45;4.87;;;4.23;;
29938;SDS011;16799;50.844;5.304;2023-06-19T00:06:11;4.23;;;3.93;;
29938;SDS011;16799;50.844;5.304;2023-06-19T00:08:38;4.77;;;4.47;;
29938;SDS011;16799;50.844;5.304;2023-06-19T00:11:06;4.80;;;4.40;;
29938;SDS011;16799;50.844;5.304;2023-06-19T00:13:32;6.43;;;5.10;;
29938;SDS011;16799;50.844;5.304;2023-06-19T00:15:59;4.70;;;4.30;;
29938;SDS011;16799;50.844;5.304;2023-06-19T00:18:27;5.00;;;4.50;;
29938;SDS011;16799;50.844;5.304;2023-06-19T00:20:53;5.23;;;4.73;;
29938;SDS011;16799;50.844;5.304;2023-06-19T00:23:21;5.30;;;4.30;;
29938;SDS011;16799;50.844;5.304;2023-06-19T00:25:47;4.83;;;4.50;;
29938;SDS011;16799;50.844;5.304;2023-06-19T00:28:13;4.40;;;4.00;;
29938;SDS011;16799;50.844;5.304;2023-06-19T00:30:40;5.93;;;4.80;;
29938;SDS011;16799;50.844;5.304;2023-06-19T00:33:06;4.87;;;4.50;;
29938;SDS011;16799;50.844;5.304;2023-06-19T00:35:33;4.87;;;4.47;;
29938;SDS011;16799;50.844;5.304;2023-06-19T00:37:59;4.83;;;4.43;;
29938;SDS011;16799;50.844;5.304;2023-06-19T00:40:28;4.80;;;4.50;;
29938;SDS011;16799;50.844;5.304;2023-06-19T00:42:55;5.50;;;5.00;;
29938;SDS011;16799;50.844;5.304;2023-06-19T00:45:21;4.83;;;4.30;;
29938;SDS011;16799;50.844;5.304;2023-06-19T00:47:48;5.23;;;4.73;;
29938;SDS011;16799;50.844;5.304;2023-06-19T00:50:14;4.93;;;4.63;;
29938;SDS011;16799;50.844;5.304;2023-06-19T00:52:40;5.20;;;4.77;;
29938;SDS011;16799;50.844;5.304;2023-06-19T00:55:06;4.03;;;3.73;;
29938;SDS011;16799;50.844;5.304;2023-06-19T00:57:32;4.43;;;4.07;;
29938;SDS011;16799;50.844;5.304;2023-06-19T00:59:58;5.63;;;5.23;;
29938;SDS011;16799;50.844;5.304;2023-06-19T01:02:25;4.80;;;4.40;;
29938;SDS011;16799;50.844;5.304;2023-06-19T01:04:51;4.67;;;4.33;;
29938;SDS011;16799;50.844;5.304;2023-06-19T01:07:17;4.93;;;4.20;;
29938;SDS011;16799;50.844;5.304;2023-06-19T01:09:52;4.77;;;4.37;;
29938;SDS011;16799;50.844;5.304;2023-06-19T01:12:28;4.70;;;4.30;;
29938;SDS011;16799;50.844;5.304;2023-06-19T01:15:00;4.17;;;3.77;;
29938;SDS011;16799;50.844;5.304;2023-06-19T01:17:28;4.00;;;3.60;;
29938;SDS011;16799;50.844;5.304;2023-06-19T01:19:55;4.80;;;4.40;;
29938;SDS011;16799;50.844;5.304;2023-06-19T01:22:31;3.97;;;3.67;;
29938;SDS011;16799;50.844;5.304;2023-06-19T01:24:56;4.33;;;3.90;;
29938;SDS011;16799;50.844;5.304;2023-06-19T01:27:23;5.47;;;4.30;;
29938;SDS011;16799;50.844;5.304;2023-06-19T01:29:59;4.50;;;4.20;;
29938;SDS011;16799;50.844;5.304;2023-06-19T01:32:35;4.27;;;3.90;;
29938;SDS011;16799;50.844;5.304;2023-06-19T01:35:07;6.07;;;5.23;;
29938;SDS011;16799;50.844;5.304;2023-06-19T01:37:34;5.10;;;4.20;;
29938;SDS011;16799;50.844;5.304;2023-06-19T01:40:04;4.47;;;4.17;;
29938;SDS011;16799;50.844;5.304;2023-06-19T01:42:34;6.40;;;5.17;;
29938;SDS011;16799;50.844;5.304;2023-06-19T01:45:03;4.63;;;4.33;;
29938;SDS011;16799;50.844;5.304;2023-06-19T01:47:29;3.97;;;3.60;;
29938;SDS011;16799;50.844;5.304;2023-06-19T01:49:55;4.77;;;3.50;;
29938;SDS011;16799;50.844;5.304;2023-06-19T01:52:21;4.57;;;4.10;;
29938;SDS011;16799;50.844;5.304;2023-06-19T01:54:47;4.10;;;3.80;;
29938;SDS011;16799;50.844;5.304;2023-06-19T01:57:13;4.17;;;3.87;;
29938;SDS011;16799;50.844;5.304;2023-06-19T01:59:39;4.37;;;3.47;;
29938;SDS011;16799;50.844;5.304;2023-06-19T02:02:04;3.43;;;3.23;;
29938;SDS011;16799;50.844;5.304;2023-06-19T02:04:31;4.03;;;3.73;;
29938;SDS011;16799;50.844;5.304;2023-06-19T02:06:58;4.30;;;4.00;;
29938;SDS011;16799;50.844;5.304;2023-06-19T02:09:23;4.23;;;3.83;;
29938;SDS011;16799;50.844;5.304;2023-06-19T02:11:49;5.57;;;4.23;;
29938;SDS011;16799;50.844;5.304;2023-06-19T02:14:15;3.77;;;3.53;;
29938;SDS011;16799;50.844;5.304;2023-06-19T02:16:40;6.43;;;4.60;;
29938;SDS011;16799;50.844;5.304;2023-06-19T02:19:08;4.57;;;4.10;;
29938;SDS011;16799;50.844;5.304;2023-06-19T02:21:37;4.70;;;4.40;;
29938;SDS011;16799;50.844;5.304;2023-06-19T02:24:03;6.53;;;4.07;;
29938;SDS011;16799;50.844;5.304;2023-06-19T02:26:29;3.17;;;2.97;;
29938;SDS011;16799;50.844;5.304;2023-06-19T02:28:55;5.40;;;3.50;;
29938;SDS011;16799;50.844;5.304;2023-06-19T02:31:24;4.10;;;3.80;;
29938;SDS011;16799;50.844;5.304;2023-06-19T02:33:50;4.60;;;4.00;;
29938;SDS011;16799;50.844;5.304;2023-06-19T02:36:16;9.27;;;4.30;;
29938;SDS011;16799;50.844;5.304;2023-06-19T02:38:47;5.40;;;3.80;;
29938;SDS011;16799;50.844;5.304;2023-06-19T02:41:14;3.70;;;3.40;;
29938;SDS011;16799;50.844;5.304;2023-06-19T02:43:43;7.83;;;3.50;;
29938;SDS011;16799;50.844;5.304;2023-06-19T02:46:09;3.63;;;3.43;;
29938;SDS011;16799;50.844;5.304;2023-06-19T02:48:35;6.77;;;3.80;;
29938;SDS011;16799;50.844;5.304;2023-06-19T02:51:01;5.33;;;4.00;;
29938;SDS011;16799;50.844;5.304;2023-06-19T02:53:26;3.63;;;3.33;;
29938;SDS011;16799;50.844;5.304;2023-06-19T02:55:52;3.80;;;3.50;;
29938;SDS011;16799;50.844;5.304;2023-06-19T02:58:18;4.83;;;4.23;;
29938;SDS011;16799;50.844;5.304;2023-06-19T03:00:44;3.17;;;2.97;;
29938;SDS011;16799;50.844;5.304;2023-06-19T03:03:11;3.13;;;2.93;;
29938;SDS011;16799;50.844;5.304;2023-06-19T03:05:37;3.00;;;2.80;;
29938;SDS011;16799;50.844;5.304;2023-06-19T03:08:03;5.30;;;4.67;;
29938;SDS011;16799;50.844;5.304;2023-06-19T03:10:29;3.40;;;3.20;;
29938;SDS011;16799;50.844;5.304;2023-06-19T03:12:55;4.73;;;4.30;;
29938;SDS011;16799;50.844;5.304;2023-06-19T03:15:20;4.60;;;4.20;;
29938;SDS011;16799;50.844;5.304;2023-06-19T03:17:46;4.30;;;4.00;;
29938;SDS011;16799;50.844;5.304;2023-06-19T03:20:12;5.27;;;4.80;;
29938;SDS011;16799;50.844;5.304;2023-06-19T03:22:41;4.87;;;4.33;;
29938;SDS011;16799;50.844;5.304;2023-06-19T03:25:07;6.10;;;5.50;;
29938;SDS011;16799;50.844;5.304;2023-06-19T03:27:33;6.47;;;5.97;;
29938;SDS011;16799;50.844;5.304;2023-06-19T03:29:59;7.23;;;6.10;;
29938;SDS011;16799;50.844;5.304;2023-06-19T03:32:25;6.20;;;5.67;;
29938;SDS011;16799;50.844;5.304;2023-06-19T03:34:51;7.80;;;7.13;;
29938;SDS011;16799;50.844;5.304;2023-06-19T03:37:17;8.33;;;7.73;;
29938;SDS011;16799;50.844;5.304;2023-06-19T03:39:42;8.70;;;6.53;;
29938;SDS011;16799;50.844;5.304;2023-06-19T03:42:08;7.70;;;7.00;;
29938;SDS011;16799;50.844;5.304;2023-06-19T03:44:34;10.80;;;8.13;;
29938;SDS011;16799;50.844;5.304;2023-06-19T03:46:59;11.63;;;8.83;;
29938;SDS011;16799;50.844;5.304;2023-06-19T03:49:25;9.70;;;8.90;;
29938;SDS011;16799;50.844;5.304;2023-06-19T03:51:51;9.10;;;8.40;;
29938;SDS011;16799;50.844;5.304;2023-06-19T03:54:19;10.07;;;9.27;;
29938;SDS011;16799;50.844;5.304;2023-06-19T03:56:45;8.93;;;8.13;;
29938;SDS011;16799;50.844;5.304;2023-06-19T03:59:11;9.80;;;7.00;;
29938;SDS011;16799;50.844;5.304;2023-06-19T04:01:36;8.07;;;7.30;;
29938;SDS011;16799;50.844;5.304;2023-06-19T04:04:02;10.13;;;8.10;;
29938;SDS011;16799;50.844;5.304;2023-06-19T04:06:28;6.93;;;6.40;;
29938;SDS011;16799;50.844;5.304;2023-06-19T04:08:53;6.83;;;6.40;;
29938;SDS011;16799;50.844;5.304;2023-06-19T04:11:19;8.60;;;6.77;;
29938;SDS011;16799;50.844;5.304;2023-06-19T04:13:45;6.87;;;6.17;;
29938;SDS011;16799;50.844;5.304;2023-06-19T04:16:11;5.60;;;5.07;;
29938;SDS011;16799;50.844;5.304;2023-06-19T04:18:37;5.20;;;4.80;;
29938;SDS011;16799;50.844;5.304;2023-06-19T04:21:03;6.67;;;4.70;;
29938;SDS011;16799;50.844;5.304;2023-06-19T04:23:28;5.50;;;5.10;;
29938;SDS011;16799;50.844;5.304;2023-06-19T04:25:54;6.20;;;5.70;;
29938;SDS011;16799;50.844;5.304;2023-06-19T04:28:20;5.20;;;4.70;;
29938;SDS011;16799;50.844;5.304;2023-06-19T04:30:45;5.97;;;5.57;;
29938;SDS011;16799;50.844;5.304;2023-06-19T04:33:11;5.53;;;5.17;;
29938;SDS011;16799;50.844;5.304;2023-06-19T04:35:37;4.17;;;3.87;;
29938;SDS011;16799;50.844;5.304;2023-06-19T04:38:05;6.47;;;5.97;;
29938;SDS011;16799;50.844;5.304;2023-06-19T04:40:31;5.33;;;4.90;;
29938;SDS011;16799;50.844;5.304;2023-06-19T04:42:57;5.90;;;5.50;;
29938;SDS011;16799;50.844;5.304;2023-06-19T04:45:23;6.10;;;5.60;;
29938;SDS011;16799;50.844;5.304;2023-06-19T04:47:49;7.50;;;5.80;;
29938;SDS011;16799;50.844;5.304;2023-06-19T04:50:15;8.10;;;6.53;;
29938;SDS011;16799;50.844;5.304;2023-06-19T04:52:41;8.40;;;7.40;;
29938;SDS011;16799;50.844;5.304;2023-06-19T04:55:07;12.40;;;7.40;;
29938;SDS011;16799;50.844;5.304;2023-06-19T04:57:36;7.63;;;7.03;;
29938;SDS011;16799;50.844;5.304;2023-06-19T05:00:05;7.03;;;6.33;;
29938;SDS011;16799;50.844;5.304;2023-06-19T05:02:32;8.87;;;7.63;;
29938;SDS011;16799;50.844;5.304;2023-06-19T05:04:58;10.50;;;7.83;;
29938;SDS011;16799;50.844;5.304;2023-06-19T05:07:29;9.57;;;8.67;;
29938;SDS011;16799;50.844;5.304;2023-06-19T05:09:55;9.60;;;8.90;;
29938;SDS011;16799;50.844;5.304;2023-06-19T05:12:21;9.20;;;8.20;;
29938;SDS011;16799;50.844;5.304;2023-06-19T05:14:47;9.33;;;8.43;;
29938;SDS011;16799;50.844;5.304;2023-06-19T05:17:12;10.13;;;8.43;;
29938;SDS011;16799;50.844;5.304;2023-06-19T05:19:38;10.40;;;9.10;;
29938;SDS011;16799;50.844;5.304;2023-06-19T05:22:04;8.67;;;8.00;;
29938;SDS011;16799;50.844;5.304;2023-06-19T05:24:30;11.80;;;10.27;;
29938;SDS011;16799;50.844;5.304;2023-06-19T05:26:55;10.80;;;9.83;;
29938;SDS011;16799;50.844;5.304;2023-06-19T05:29:21;9.37;;;8.67;;
29938;SDS011;16799;50.844;5.304;2023-06-19T05:31:47;15.40;;;9.17;;
29938;SDS011;16799;50.844;5.304;2023-06-19T05:34:12;9.07;;;8.27;;
29938;SDS011;16799;50.844;5.304;2023-06-19T05:36:38;8.77;;;7.93;;
29938;SDS011;16799;50.844;5.304;2023-06-19T05:39:04;8.90;;;8.20;;
29938;SDS011;16799;50.844;5.304;2023-06-19T05:41:29;8.43;;;7.60;;
29938;SDS011;16799;50.844;5.304;2023-06-19T05:43:57;14.20;;;8.07;;
29938;SDS011;16799;50.844;5.304;2023-06-19T05:46:23;8.40;;;7.00;;
29938;SDS011;16799;50.844;5.304;2023-06-19T05:48:49;6.70;;;6.10;;
29938;SDS011;16799;50.844;5.304;2023-06-19T05:51:14;10.60;;;6.80;;
29938;SDS011;16799;50.844;5.304;2023-06-19T05:53:40;6.37;;;5.87;;
29938;SDS011;16799;50.844;5.304;2023-06-19T05:56:06;10.23;;;7.50;;
29938;SDS011;16799;50.844;5.304;2023-06-19T05:58:32;10.07;;;7.87;;
29938;SDS011;16799;50.844;5.304;2023-06-19T06:00:57;8.13;;;7.40;;
29938;SDS011;16799;50.844;5.304;2023-06-19T06:03:24;8.93;;;7.70;;
29938;SDS011;16799;50.844;5.304;2023-06-19T06:05:50;8.27;;;7.47;;
29938;SDS011;16799;50.844;5.304;2023-06-19T06:08:16;7.93;;;6.60;;
29938;SDS011;16799;50.844;5.304;2023-06-19T06:10:42;9.77;;;8.87;;
29938;SDS011;16799;50.844;5.304;2023-06-19T06:13:08;8.20;;;7.40;;
29938;SDS011;16799;50.844;5.304;2023-06-19T06:15:34;8.47;;;7.00;;
29938;SDS011;16799;50.844;5.304;2023-06-19T06:17:59;10.70;;;7.87;;
29938;SDS011;16799;50.844;5.304;2023-06-19T06:20:25;8.20;;;7.50;;
29938;SDS011;16799;50.844;5.304;2023-06-19T06:22:52;6.40;;;5.90;;
29938;SDS011;16799;50.844;5.304;2023-06-19T06:25:18;12.33;;;7.53;;
29938;SDS011;16799;50.844;5.304;2023-06-19T06:27:44;8.60;;;7.13;;
29938;SDS011;16799;50.844;5.304;2023-06-19T06:30:10;9.13;;;8.23;;
29938;SDS011;16799;50.844;5.304;2023-06-19T06:32:37;8.80;;;7.87;;
29938;SDS011;16799;50.844;5.304;2023-06-19T06:35:03;10.00;;;8.60;;
29938;SDS011;16799;50.844;5.304;2023-06-19T06:37:29;11.37;;;8.10;;
29938;SDS011;16799;50.844;5.304;2023-06-19T06:39:54;9.23;;;8.37;;
29938;SDS011;16799;50.844;5.304;2023-06-19T06:42:20;9.57;;;8.77;;
29938;SDS011;16799;50.844;5.304;2023-06-19T06:44:46;9.33;;;8.53;;
29938;SDS011;16799;50.844;5.304;2023-06-19T06:47:12;8.30;;;7.50;;
29938;SDS011;16799;50.844;5.304;2023-06-19T06:49:37;8.97;;;8.07;;
29938;SDS011;16799;50.844;5.304;2023-06-19T06:52:03;8.13;;;7.47;;
29938;SDS011;16799;50.844;5.304;2023-06-19T06:54:29;7.80;;;7.23;;
29938;SDS011;16799;50.844;5.304;2023-06-19T06:56:55;10.83;;;7.90;;
29938;SDS011;16799;50.844;5.304;2023-06-19T06:59:24;10.00;;;8.50;;
29938;SDS011;16799;50.844;5.304;2023-06-19T07:01:51;9.33;;;8.43;;
29938;SDS011;16799;50.844;5.304;2023-06-19T07:04:21;8.53;;;7.73;;
29938;SDS011;16799;50.844;5.304;2023-06-19T07:06:47;10.43;;;7.17;;
29938;SDS011;16799;50.844;5.304;2023-06-19T07:09:13;9.33;;;6.80;;
29938;SDS011;16799;50.844;5.304;2023-06-19T07:11:39;12.43;;;8.10;;
29938;SDS011;16799;50.844;5.304;2023-06-19T07:14:04;6.67;;;6.27;;
29938;SDS011;16799;50.844;5.304;2023-06-19T07:16:30;7.53;;;6.77;;
29938;SDS011;16799;50.844;5.304;2023-06-19T07:18:56;6.70;;;5.83;;
29938;SDS011;16799;50.844;5.304;2023-06-19T07:21:21;6.87;;;6.20;;
29938;SDS011;16799;50.844;5.304;2023-06-19T07:23:47;7.37;;;6.67;;
29938;SDS011;16799;50.844;5.304;2023-06-19T07:26:13;7.20;;;6.60;;
29938;SDS011;16799;50.844;5.304;2023-06-19T07:28:39;7.83;;;7.13;;
29938;SDS011;16799;50.844;5.304;2023-06-19T07:31:05;9.47;;;6.73;;
29938;SDS011;16799;50.844;5.304;2023-06-19T07:33:31;8.60;;;6.33;;
29938;SDS011;16799;50.844;5.304;2023-06-19T07:35:57;7.50;;;6.00;;
29938;SDS011;16799;50.844;5.304;2023-06-19T07:38:23;7.10;;;5.57;;
29938;SDS011;16799;50.844;5.304;2023-06-19T07:40:48;8.70;;;5.70;;
29938;SDS011;16799;50.844;5.304;2023-06-19T07:43:14;6.03;;;5.63;;
29938;SDS011;16799;50.844;5.304;2023-06-19T07:45:40;6.30;;;5.70;;
29938;SDS011;16799;50.844;5.304;2023-06-19T07:48:06;6.90;;;6.37;;
29938;SDS011;16799;50.844;5.304;2023-06-19T07:50:31;6.47;;;5.73;;
29938;SDS011;16799;50.844;5.304;2023-06-19T07:52:57;6.77;;;5.83;;
29938;SDS011;16799;50.844;5.304;2023-06-19T07:55:23;7.77;;;6.13;;
29938;SDS011;16799;50.844;5.304;2023-06-19T07:57:48;6.53;;;5.07;;
29938;SDS011;16799;50.844;5.304;2023-06-19T08:00:14;6.50;;;5.90;;
29938;SDS011;16799;50.844;5.304;2023-06-19T08:02:40;7.93;;;7.03;;
29938;SDS011;16799;50.844;5.304;2023-06-19T08:05:07;6.30;;;5.80;;
29938;SDS011;16799;50.844;5.304;2023-06-19T08:07:34;5.97;;;5.30;;
29938;SDS011;16799;50.844;5.304;2023-06-19T08:10:00;6.43;;;5.90;;
29938;SDS011;16799;50.844;5.304;2023-06-19T08:12:28;6.70;;;6.27;;
29938;SDS011;16799;50.844;5.304;2023-06-19T08:14:54;6.80;;;5.70;;
29938;SDS011;16799;50.844;5.304;2023-06-19T08:17:20;5.33;;;4.93;;
29938;SDS011;16799;50.844;5.304;2023-06-19T08:19:45;5.50;;;5.10;;
29938;SDS011;16799;50.844;5.304;2023-06-19T08:22:11;4.93;;;4.63;;
29938;SDS011;16799;50.844;5.304;2023-06-19T08:24:37;6.10;;;5.60;;
29938;SDS011;16799;50.844;5.304;2023-06-19T08:27:05;4.83;;;4.53;;
29938;SDS011;16799;50.844;5.304;2023-06-19T08:29:31;5.80;;;5.40;;
29938;SDS011;16799;50.844;5.304;2023-06-19T08:31:56;5.37;;;4.97;;
29938;SDS011;16799;50.844;5.304;2023-06-19T08:34:22;6.93;;;6.20;;
29938;SDS011;16799;50.844;5.304;2023-06-19T08:36:47;7.17;;;5.10;;
29938;SDS011;16799;50.844;5.304;2023-06-19T08:39:13;5.27;;;4.93;;
29938;SDS011;16799;50.844;5.304;2023-06-19T08:41:39;6.83;;;5.07;;
29938;SDS011;16799;50.844;5.304;2023-06-19T08:44:06;6.40;;;4.70;;
29938;SDS011;16799;50.844;5.304;2023-06-19T08:46:33;5.17;;;4.67;;
29938;SDS011;16799;50.844;5.304;2023-06-19T08:49:01;6.30;;;5.20;;
29938;SDS011;16799;50.844;5.304;2023-06-19T08:51:28;6.33;;;5.83;;
29938;SDS011;16799;50.844;5.304;2023-06-19T08:53:56;9.70;;;6.17;;
29938;SDS011;16799;50.844;5.304;2023-06-19T08:56:26;6.70;;;6.10;;
29938;SDS011;16799;50.844;5.304;2023-06-19T08:58:52;10.93;;;5.30;;
29938;SDS011;16799;50.844;5.304;2023-06-19T09:01:18;5.57;;;5.03;;
29938;SDS011;16799;50.844;5.304;2023-06-19T09:03:45;5.93;;;5.43;;
29938;SDS011;16799;50.844;5.304;2023-06-19T09:06:14;6.80;;;4.87;;
29938;SDS011;16799;50.844;5.304;2023-06-19T09:08:41;6.10;;;5.60;;
29938;SDS011;16799;50.844;5.304;2023-06-19T09:11:07;5.97;;;5.13;;
29938;SDS011;16799;50.844;5.304;2023-06-19T09:13:32;7.40;;;5.90;;
29938;SDS011;16799;50.844;5.304;2023-06-19T09:18:25;6.00;;;5.40;;
29938;SDS011;16799;50.844;5.304;2023-06-19T09:20:52;5.23;;;4.70;;
29938;SDS011;16799;50.844;5.304;2023-06-19T09:23:19;7.63;;;5.43;;
29938;SDS011;16799;50.844;5.304;2023-06-19T09:28:21;5.07;;;4.67;;
29938;SDS011;16799;50.844;5.304;2023-06-19T09:33:40;5.20;;;4.80;;
29938;SDS011;16799;50.844;5.304;2023-06-19T09:36:06;6.00;;;5.33;;
29938;SDS011;16799;50.844;5.304;2023-06-19T09:38:33;6.77;;;6.30;;
29938;SDS011;16799;50.844;5.304;2023-06-19T09:41:08;6.20;;;5.57;;
29938;SDS011;16799;50.844;5.304;2023-06-19T09:46:03;7.43;;;5.60;;
29938;SDS011;16799;50.844;5.304;2023-06-19T09:48:33;6.67;;;6.10;;
29938;SDS011;16799;50.844;5.304;2023-06-19T09:53:37;8.10;;;5.17;;
29938;SDS011;16799;50.844;5.304;2023-06-19T09:56:03;7.30;;;5.37;;
29938;SDS011;16799;50.844;5.304;2023-06-19T09:58:28;5.40;;;5.00;;
29938;SDS011;16799;50.844;5.304;2023-06-19T10:00:55;6.93;;;5.73;;
29938;SDS011;16799;50.844;5.304;2023-06-19T10:03:29;5.50;;;5.10;;
29938;SDS011;16799;50.844;5.304;2023-06-19T10:05:59;5.33;;;4.93;;
29938;SDS011;16799;50.844;5.304;2023-06-19T10:08:27;5.40;;;5.10;;
29938;SDS011;16799;50.844;5.304;2023-06-19T10:10:55;6.63;;;6.03;;
29938;SDS011;16799;50.844;5.304;2023-06-19T10:13:30;6.10;;;5.60;;
29938;SDS011;16799;50.844;5.304;2023-06-19T10:16:00;6.23;;;5.67;;
29938;SDS011;16799;50.844;5.304;2023-06-19T10:18:26;11.33;;;5.10;;
29938;SDS011;16799;50.844;5.304;2023-06-19T10:20:53;6.83;;;5.17;;
29938;SDS011;16799;50.844;5.304;2023-06-19T10:23:23;6.63;;;6.13;;
29938;SDS011;16799;50.844;5.304;2023-06-19T10:28:19;6.60;;;5.90;;
29938;SDS011;16799;50.844;5.304;2023-06-19T10:33:31;6.60;;;6.00;;
29938;SDS011;16799;50.844;5.304;2023-06-19T10:35:59;6.67;;;6.17;;
29938;SDS011;16799;50.844;5.304;2023-06-19T10:38:26;7.20;;;6.50;;
29938;SDS011;16799;50.844;5.304;2023-06-19T10:40:52;6.67;;;5.60;;
29938;SDS011;16799;50.844;5.304;2023-06-19T10:43:21;7.33;;;6.60;;
29938;SDS011;16799;50.844;5.304;2023-06-19T10:45:50;6.50;;;6.00;;
29938;SDS011;16799;50.844;5.304;2023-06-19T10:48:22;14.77;;;6.63;;
29938;SDS011;16799;50.844;5.304;2023-06-19T10:50:49;8.17;;;7.27;;
29938;SDS011;16799;50.844;5.304;2023-06-19T10:53:29;7.07;;;6.40;;
29938;SDS011;16799;50.844;5.304;2023-06-19T10:55:57;6.53;;;6.03;;
29938;SDS011;16799;50.844;5.304;2023-06-19T10:58:24;6.60;;;5.97;;
29938;SDS011;16799;50.844;5.304;2023-06-19T11:00:50;9.63;;;6.40;;
29938;SDS011;16799;50.844;5.304;2023-06-19T11:03:16;10.00;;;5.67;;
29938;SDS011;16799;50.844;5.304;2023-06-19T11:05:45;5.77;;;5.37;;
29938;SDS011;16799;50.844;5.304;2023-06-19T11:08:16;6.97;;;6.27;;
29938;SDS011;16799;50.844;5.304;2023-06-19T11:10:43;6.00;;;5.50;;
29938;SDS011;16799;50.844;5.304;2023-06-19T11:13:12;6.97;;;6.47;;
29938;SDS011;16799;50.844;5.304;2023-06-19T11:15:43;6.57;;;6.07;;
29938;SDS011;16799;50.844;5.304;2023-06-19T11:18:09;7.17;;;6.23;;
29938;SDS011;16799;50.844;5.304;2023-06-19T11:23:15;7.43;;;5.30;;
29938;SDS011;16799;50.844;5.304;2023-06-19T11:25:49;6.77;;;6.10;;
29938;SDS011;16799;50.844;5.304;2023-06-19T11:28:15;6.00;;;5.60;;
29938;SDS011;16799;50.844;5.304;2023-06-19T11:30:48;10.87;;;7.47;;
29938;SDS011;16799;50.844;5.304;2023-06-19T11:33:23;12.73;;;8.13;;
29938;SDS011;16799;50.844;5.304;2023-06-19T11:35:53;6.20;;;4.97;;
29938;SDS011;16799;50.844;5.304;2023-06-19T11:38:23;8.83;;;6.80;;
29938;SDS011;16799;50.844;5.304;2023-06-19T11:40:51;5.20;;;4.90;;
29938;SDS011;16799;50.844;5.304;2023-06-19T11:43:27;7.63;;;7.03;;
29938;SDS011;16799;50.844;5.304;2023-06-19T11:46:07;6.53;;;5.97;;
29938;SDS011;16799;50.844;5.304;2023-06-19T11:48:36;11.43;;;6.10;;
29938;SDS011;16799;50.844;5.304;2023-06-19T11:51:02;6.80;;;5.70;;
29938;SDS011;16799;50.844;5.304;2023-06-19T11:53:28;7.67;;;6.83;;
29938;SDS011;16799;50.844;5.304;2023-06-19T11:55:54;7.10;;;6.43;;
29938;SDS011;16799;50.844;5.304;2023-06-19T11:58:21;7.40;;;4.60;;
29938;SDS011;16799;50.844;5.304;2023-06-19T12:00:47;5.30;;;4.80;;
29938;SDS011;16799;50.844;5.304;2023-06-19T12:03:13;5.40;;;5.07;;
29938;SDS011;16799;50.844;5.304;2023-06-19T12:05:39;7.03;;;6.53;;
29938;SDS011;16799;50.844;5.304;2023-06-19T12:08:05;16.40;;;4.90;;
29938;SDS011;16799;50.844;5.304;2023-06-19T12:10:32;6.43;;;5.20;;
29938;SDS011;16799;50.844;5.304;2023-06-19T12:13:01;5.77;;;5.23;;
29938;SDS011;16799;50.844;5.304;2023-06-19T12:15:26;5.23;;;4.80;;
29938;SDS011;16799;50.844;5.304;2023-06-19T12:17:52;6.30;;;5.07;;
29938;SDS011;16799;50.844;5.304;2023-06-19T12:20:18;5.80;;;4.60;;
29938;SDS011;16799;50.844;5.304;2023-06-19T12:22:44;4.70;;;4.40;;
29938;SDS011;16799;50.844;5.304;2023-06-19T12:25:10;7.23;;;5.37;;
29938;SDS011;16799;50.844;5.304;2023-06-19T12:27:36;5.40;;;5.00;;
29938;SDS011;16799;50.844;5.304;2023-06-19T12:30:03;4.40;;;4.10;;
29938;SDS011;16799;50.844;5.304;2023-06-19T12:32:29;4.77;;;4.27;;
29938;SDS011;16799;50.844;5.304;2023-06-19T12:34:55;5.70;;;5.07;;
29938;SDS011;16799;50.844;5.304;2023-06-19T12:37:20;7.73;;;5.03;;
29938;SDS011;16799;50.844;5.304;2023-06-19T12:39:47;5.13;;;4.10;;
29938;SDS011;16799;50.844;5.304;2023-06-19T12:42:13;5.63;;;4.17;;
29938;SDS011;16799;50.844;5.304;2023-06-19T12:44:39;6.13;;;5.00;;
29938;SDS011;16799;50.844;5.304;2023-06-19T12:47:05;8.10;;;4.40;;
29938;SDS011;16799;50.844;5.304;2023-06-19T12:49:31;5.40;;;4.10;;
29938;SDS011;16799;50.844;5.304;2023-06-19T12:51:57;4.83;;;4.43;;
29938;SDS011;16799;50.844;5.304;2023-06-19T12:54:23;4.10;;;3.90;;
29938;SDS011;16799;50.844;5.304;2023-06-19T12:56:49;4.73;;;4.33;;
29938;SDS011;16799;50.844;5.304;2023-06-19T12:59:15;6.33;;;4.70;;
29938;SDS011;16799;50.844;5.304;2023-06-19T13:01:42;4.60;;;4.30;;
29938;SDS011;16799;50.844;5.304;2023-06-19T13:04:08;4.93;;;4.57;;
29938;SDS011;16799;50.844;5.304;2023-06-19T13:06:38;5.33;;;4.93;;
29938;SDS011;16799;50.844;5.304;2023-06-19T13:09:04;5.17;;;4.60;;
29938;SDS011;16799;50.844;5.304;2023-06-19T13:11:31;9.50;;;4.90;;
29938;SDS011;16799;50.844;5.304;2023-06-19T13:13:59;4.07;;;3.63;;
29938;SDS011;16799;50.844;5.304;2023-06-19T13:16:25;5.17;;;4.70;;
29938;SDS011;16799;50.844;5.304;2023-06-19T13:18:51;4.00;;;3.80;;
29938;SDS011;16799;50.844;5.304;2023-06-19T13:21:17;4.23;;;3.90;;
29938;SDS011;16799;50.844;5.304;2023-06-19T13:23:43;6.20;;;5.00;;
29938;SDS011;16799;50.844;5.304;2023-06-19T13:26:08;3.77;;;3.47;;
29938;SDS011;16799;50.844;5.304;2023-06-19T13:28:34;4.47;;;4.10;;
29938;SDS011;16799;50.844;5.304;2023-06-19T13:31:01;14.17;;;4.70;;
29938;SDS011;16799;50.844;5.304;2023-06-19T13:33:27;7.57;;;4.13;;
29938;SDS011;16799;50.844;5.304;2023-06-19T13:35:53;4.13;;;3.93;;
29938;SDS011;16799;50.844;5.304;2023-06-19T13:38:18;4.93;;;3.67;;
29938;SDS011;16799;50.844;5.304;2023-06-19T13:40:44;3.27;;;3.00;;
29938;SDS011;16799;50.844;5.304;2023-06-19T13:43:10;5.80;;;3.73;;
29938;SDS011;16799;50.844;5.304;2023-06-19T13:45:36;3.50;;;3.30;;
29938;SDS011;16799;50.844;5.304;2023-06-19T13:48:03;3.60;;;3.40;;
29938;SDS011;16799;50.844;5.304;2023-06-19T13:50:30;6.17;;;3.53;;
29938;SDS011;16799;50.844;5.304;2023-06-19T13:52:57;3.70;;;3.40;;
29938;SDS011;16799;50.844;5.304;2023-06-19T13:55:24;4.20;;;3.30;;
29938;SDS011;16799;50.844;5.304;2023-06-19T13:57:49;3.90;;;3.60;;
29938;SDS011;16799;50.844;5.304;2023-06-19T14:00:15;5.47;;;4.37;;
29938;SDS011;16799;50.844;5.304;2023-06-19T14:02:41;5.93;;;3.20;;
29938;SDS011;16799;50.844;5.304;2023-06-19T14:05:07;3.70;;;3.50;;
29938;SDS011;16799;50.844;5.304;2023-06-19T14:07:34;3.83;;;3.33;;
29938;SDS011;16799;50.844;5.304;2023-06-19T14:10:00;4.10;;;3.80;;
29938;SDS011;16799;50.844;5.304;2023-06-19T14:12:28;5.83;;;3.37;;
29938;SDS011;16799;50.844;5.304;2023-06-19T14:14:54;4.93;;;2.80;;
29938;SDS011;16799;50.844;5.304;2023-06-19T14:17:20;4.20;;;3.63;;
29938;SDS011;16799;50.844;5.304;2023-06-19T14:19:46;4.20;;;3.80;;
29938;SDS011;16799;50.844;5.304;2023-06-19T14:22:12;3.70;;;3.50;;
29938;SDS011;16799;50.844;5.304;2023-06-19T14:24:38;3.23;;;3.03;;
29938;SDS011;16799;50.844;5.304;2023-06-19T14:27:03;3.07;;;2.87;;
29938;SDS011;16799;50.844;5.304;2023-06-19T14:29:29;3.67;;;3.37;;
29938;SDS011;16799;50.844;5.304;2023-06-19T14:31:55;3.70;;;3.50;;
29938;SDS011;16799;50.844;5.304;2023-06-19T14:34:21;4.00;;;3.70;;
29938;SDS011;16799;50.844;5.304;2023-06-19T14:36:46;4.17;;;3.87;;
29938;SDS011;16799;50.844;5.304;2023-06-19T14:39:12;4.67;;;4.27;;
29938;SDS011;16799;50.844;5.304;2023-06-19T14:41:39;3.77;;;3.57;;
29938;SDS011;16799;50.844;5.304;2023-06-19T14:44:04;3.30;;;3.10;;
29938;SDS011;16799;50.844;5.304;2023-06-19T14:46:33;3.37;;;3.17;;
29938;SDS011;16799;50.844;5.304;2023-06-19T14:49:04;6.03;;;3.60;;
29938;SDS011;16799;50.844;5.304;2023-06-19T14:51:30;3.57;;;3.27;;
29938;SDS011;16799;50.844;5.304;2023-06-19T14:53:56;3.73;;;3.53;;
29938;SDS011;16799;50.844;5.304;2023-06-19T14:56:22;4.07;;;3.87;;
29938;SDS011;16799;50.844;5.304;2023-06-19T14:58:47;3.43;;;3.20;;
29938;SDS011;16799;50.844;5.304;2023-06-19T15:01:13;3.60;;;3.40;;
29938;SDS011;16799;50.844;5.304;2023-06-19T15:03:39;4.10;;;3.80;;